Time;durP1;ratioP1;P1;durP2;ratioP2;P2;SDS_P1;SDS_P2;PMS_P1;PMS_P2;Temp;Humidity;BMP_temperature;BMP_pressure;BME280_temperature;BME280_humidity;BME280_pressure;Samples;Min_cycle;Max_cycle;Signal;HPM_P1;HPM_P2
2024/02/29 00:00:00;;;;;;;5.18;1.63;;;;;;;;;;2087112;28;20017;-49
2024/02/29 00:01:01;;;;;;;2.03;0.93;;;;;;;;;;2086221;28;20035;-51
2024/02/29 00:02:02;;;;;;;4.47;1.45;;;;;;;;;;2087848;28;20494;-48
2024/02/29 00:03:04;;;;;;;2.75;1.25;;;;;;;;;;2085416;28;20029;-48
2024/02/29 00:04:05;;;;;;;3.00;1.35;;;;;;;;;;2088443;28;20032;-48
2024/02/29 00:05:07;;;;;;;1.92;1.20;;;;;;;;;;2085909;28;20160;-49
2024/02/29 00:06:08;;;;;;;2.83;1.40;;;;;;;;;;2084558;28;20063;-47
2024/02/29 00:07:09;;;;;;;1.52;1.20;;;;;;;;;;2085354;28;20440;-49
2024/02/29 00:08:10;;;;;;;2.45;1.35;;;;;;;;;;2083203;28;20128;-49
2024/02/29 00:09:12;;;;;;;1.90;1.40;;;;;;;;;;2089117;28;20017;-50
2024/02/29 00:10:14;;;;;;;2.72;1.27;;;;;;;;;;2088232;28;20027;-50
2024/02/29 00:11:15;;;;;;;2.83;1.10;;;;;;;;;;2085482;28;20061;-49
2024/02/29 00:12:17;;;;;;;3.83;1.50;;;;;;;;;;2086233;28;20021;-49
2024/02/29 00:13:18;;;;;;;2.90;1.42;;;;;;;;;;2084803;28;20028;-47
2024/02/29 00:14:19;;;;;;;3.55;1.40;;;;;;;;;;2086100;28;20472;-47
2024/02/29 00:15:20;;;;;;;2.80;1.25;;;;;;;;;;2084721;28;20479;-48
2024/02/29 00:16:22;;;;;;;2.78;1.33;;;;;;;;;;2082985;28;20396;-48
2024/02/29 00:17:23;;;;;;;3.67;1.00;;;;;;;;;;2089526;28;20024;-47
2024/02/29 00:18:24;;;;;;;2.80;1.33;;;;;;;;;;2088371;28;20014;-47
2024/02/29 00:19:25;;;;;;;3.45;1.23;;;;;;;;;;2082907;28;20412;-49
2024/02/29 00:20:27;;;;;;;3.40;1.40;;;;;;;;;;2082983;28;20468;-49
2024/02/29 00:21:29;;;;;;;3.25;1.35;;;;;;;;;;2086702;28;20061;-49
2024/02/29 00:22:30;;;;;;;3.55;1.30;;;;;;;;;;2085196;28;20029;-48
2024/02/29 00:23:31;;;;;;;2.50;1.13;;;;;;;;;;2083780;28;20454;-49
2024/02/29 00:24:33;;;;;;;5.35;1.20;;;;;;;;;;2087233;28;20032;-48
2024/02/29 00:25:34;;;;;;;4.60;1.80;;;;;;;;;;2089382;28;20013;-50
2024/02/29 00:26:35;;;;;;;3.53;1.30;;;;;;;;;;2086362;28;20041;-48
2024/02/29 00:27:36;;;;;;;3.80;1.33;;;;;;;;;;2086296;28;20029;-49
2024/02/29 00:28:37;;;;;;;2.85;1.52;;;;;;;;;;2088326;28;20018;-49
2024/02/29 00:29:39;;;;;;;3.85;2.00;;;;;;;;;;2086953;28;20100;-48
2024/02/29 00:30:40;;;;;;;7.22;1.73;;;;;;;;;;2085495;28;20455;-49
2024/02/29 00:31:44;;;;;;;4.75;1.90;;;;;;;;;;2083937;28;20017;-47
2024/02/29 00:32:46;;;;;;;4.00;2.03;;;;;;;;;;2086007;28;20025;-47
2024/02/29 00:33:48;;;;;;;3.38;1.60;;;;;;;;;;2087912;28;20025;-48
2024/02/29 00:34:49;;;;;;;4.03;1.55;;;;;;;;;;2088617;28;20116;-48
2024/02/29 00:35:50;;;;;;;4.40;2.30;;;;;;;;;;2085522;28;20009;-49
2024/02/29 00:36:51;;;;;;;5.85;3.22;;;;;;;;;;2085848;28;20111;-49
2024/02/29 00:37:53;;;;;;;4.45;1.80;;;;;;;;;;2085699;28;20083;-49
2024/02/29 00:38:55;;;;;;;4.22;2.15;;;;;;;;;;2088514;28;20028;-48
2024/02/29 00:39:58;;;;;;;2.90;1.42;;;;;;;;;;2082264;28;20072;-49
2024/02/29 00:40:59;;;;;;;5.45;1.63;;;;;;;;;;2083566;28;20028;-49
2024/02/29 00:42:00;;;;;;;2.22;1.40;;;;;;;;;;2086887;28;20025;-48
2024/02/29 00:43:02;;;;;;;3.85;1.92;;;;;;;;;;2085652;28;20025;-47
2024/02/29 00:44:03;;;;;;;4.57;1.75;;;;;;;;;;2085133;28;20467;-48
2024/02/29 00:45:04;;;;;;;6.88;2.00;;;;;;;;;;2087578;28;20037;-48
2024/02/29 00:46:06;;;;;;;5.15;1.80;;;;;;;;;;2084573;28;20535;-48
2024/02/29 00:47:07;;;;;;;3.75;1.60;;;;;;;;;;2086306;28;20033;-48
2024/02/29 00:48:08;;;;;;;4.03;1.95;;;;;;;;;;2087517;28;20357;-47
2024/02/29 00:49:09;;;;;;;4.60;1.70;;;;;;;;;;2082474;28;20536;-49
2024/02/29 00:50:10;;;;;;;4.32;1.77;;;;;;;;;;2086332;28;20067;-49
2024/02/29 00:51:12;;;;;;;5.10;2.05;;;;;;;;;;2085899;28;20099;-47
2024/02/29 00:52:13;;;;;;;7.00;2.25;;;;;;;;;;2087314;28;20080;-49
2024/02/29 00:53:14;;;;;;;7.40;2.30;;;;;;;;;;2089577;28;20108;-48
2024/02/29 00:54:15;;;;;;;4.22;2.17;;;;;;;;;;2086820;28;20079;-47
2024/02/29 00:55:17;;;;;;;3.20;1.88;;;;;;;;;;2084816;28;20365;-53
2024/02/29 00:56:18;;;;;;;4.85;2.53;;;;;;;;;;2082569;28;20470;-48
2024/02/29 00:57:19;;;;;;;5.35;2.20;;;;;;;;;;2084095;28;20025;-48
2024/02/29 00:58:21;;;;;;;5.13;2.00;;;;;;;;;;2089542;28;20021;-48
2024/02/29 00:59:22;;;;;;;4.40;2.20;;;;;;;;;;2084474;28;20021;-47
2024/02/29 01:00:23;;;;;;;3.95;2.22;;;;;;;;;;2084847;28;20024;-48
2024/02/29 01:01:27;;;;;;;6.65;2.35;;;;;;;;;;2086216;28;20079;-48
2024/02/29 01:02:28;;;;;;;4.22;2.22;;;;;;;;;;2086819;28;20087;-50
2024/02/29 01:03:29;;;;;;;3.97;2.35;;;;;;;;;;2083630;28;20021;-47
2024/02/29 01:04:31;;;;;;;6.20;2.47;;;;;;;;;;2085315;28;20522;-47
2024/02/29 01:05:32;;;;;;;6.80;2.53;;;;;;;;;;2085666;28;20021;-48
2024/02/29 01:06:33;;;;;;;4.85;2.47;;;;;;;;;;2086104;28;20040;-48
2024/02/29 01:07:36;;;;;;;3.38;2.00;;;;;;;;;;2084043;28;20076;-48
2024/02/29 01:08:38;;;;;;;4.82;2.42;;;;;;;;;;2086480;28;20053;-49
2024/02/29 01:09:39;;;;;;;2.88;1.67;;;;;;;;;;2089599;28;20015;-48
2024/02/29 01:10:40;;;;;;;4.65;1.50;;;;;;;;;;2088182;28;20021;-48
2024/02/29 01:11:42;;;;;;;3.60;1.63;;;;;;;;;;2084681;28;20958;-49
2024/02/29 01:12:43;;;;;;;4.38;1.27;;;;;;;;;;2083241;28;20393;-48
2024/02/29 01:13:44;;;;;;;3.17;1.42;;;;;;;;;;2082158;28;20033;-48
2024/02/29 01:14:46;;;;;;;3.42;1.23;;;;;;;;;;2085932;28;20151;-48
2024/02/29 01:15:48;;;;;;;1.80;0.98;;;;;;;;;;2087640;28;20041;-48
2024/02/29 01:16:51;;;;;;;3.42;1.20;;;;;;;;;;2083436;28;20449;-47
2024/02/29 01:17:52;;;;;;;2.53;1.05;;;;;;;;;;2082345;28;20025;-47
2024/02/29 01:18:53;;;;;;;4.07;1.83;;;;;;;;;;2083896;28;20021;-47
2024/02/29 01:19:54;;;;;;;3.30;1.30;;;;;;;;;;2084164;28;20029;-48
2024/02/29 01:20:55;;;;;;;2.10;1.10;;;;;;;;;;2085552;28;20086;-48
2024/02/29 01:21:57;;;;;;;2.33;1.10;;;;;;;;;;2083969;28;20022;-48
2024/02/29 01:22:58;;;;;;;5.85;1.33;;;;;;;;;;2082713;28;20033;-49
2024/02/29 01:23:59;;;;;;;2.22;1.30;;;;;;;;;;2084682;28;20115;-47
2024/02/29 01:25:01;;;;;;;2.63;1.10;;;;;;;;;;2085598;28;20162;-48
2024/02/29 01:26:04;;;;;;;2.00;1.17;;;;;;;;;;2080801;28;20029;-47
2024/02/29 01:27:05;;;;;;;1.77;0.90;;;;;;;;;;2087838;28;20020;-48
2024/02/29 01:28:06;;;;;;;2.45;0.90;;;;;;;;;;2081516;28;20371;-48
2024/02/29 01:29:08;;;;;;;2.38;1.10;;;;;;;;;;2086461;28;20482;-47
2024/02/29 01:30:09;;;;;;;1.88;1.05;;;;;;;;;;2083845;28;20512;-48
2024/02/29 01:31:10;;;;;;;2.58;1.15;;;;;;;;;;2083253;28;20502;-50
2024/02/29 01:32:12;;;;;;;3.70;0.98;;;;;;;;;;2085708;28;20160;-47
2024/02/29 01:33:13;;;;;;;2.58;1.13;;;;;;;;;;2081811;28;20056;-48
2024/02/29 01:34:14;;;;;;;3.80;0.95;;;;;;;;;;2089006;28;20099;-47
2024/02/29 01:35:15;;;;;;;5.25;1.02;;;;;;;;;;2082002;28;20021;-48
2024/02/29 01:36:17;;;;;;;2.30;1.00;;;;;;;;;;2086344;28;20029;-48
2024/02/29 01:37:18;;;;;;;3.03;1.17;;;;;;;;;;2087203;28;20119;-48
2024/02/29 01:38:19;;;;;;;2.22;1.00;;;;;;;;;;2087168;28;20037;-48
2024/02/29 01:39:21;;;;;;;2.20;0.90;;;;;;;;;;2086522;28;20043;-48
2024/02/29 01:40:22;;;;;;;2.05;1.02;;;;;;;;;;2081936;28;20518;-47
2024/02/29 01:41:24;;;;;;;1.58;1.13;;;;;;;;;;2085312;28;20032;-48
2024/02/29 01:42:25;;;;;;;2.50;1.33;;;;;;;;;;2089047;28;20025;-47
2024/02/29 01:43:29;;;;;;;4.35;1.10;;;;;;;;;;2085541;28;20373;-49
2024/02/29 01:44:30;;;;;;;2.15;1.17;;;;;;;;;;2080901;28;20044;-48
2024/02/29 01:45:32;;;;;;;2.13;1.20;;;;;;;;;;2085450;28;20325;-48
2024/02/29 01:46:33;;;;;;;4.10;1.20;;;;;;;;;;2083289;28;20084;-48
2024/02/29 01:47:34;;;;;;;2.95;1.52;;;;;;;;;;2086889;28;20020;-47
2024/02/29 01:48:35;;;;;;;3.17;1.33;;;;;;;;;;2086366;28;20091;-48
2024/02/29 01:49:37;;;;;;;2.63;1.10;;;;;;;;;;2085669;28;20009;-49
2024/02/29 01:50:39;;;;;;;3.20;1.20;;;;;;;;;;2088152;28;20024;-47
2024/02/29 01:51:41;;;;;;;2.75;1.30;;;;;;;;;;2087833;28;20016;-47
2024/02/29 01:52:42;;;;;;;2.63;1.10;;;;;;;;;;2088012;28;20112;-48
2024/02/29 01:53:43;;;;;;;2.30;1.27;;;;;;;;;;2082218;28;20018;-50
2024/02/29 01:54:45;;;;;;;2.83;1.00;;;;;;;;;;2086437;28;20040;-53
2024/02/29 01:55:46;;;;;;;3.92;1.25;;;;;;;;;;2084348;28;20020;-49
2024/02/29 01:56:47;;;;;;;3.25;1.25;;;;;;;;;;2083812;28;20024;-48
2024/02/29 01:57:48;;;;;;;1.95;1.10;;;;;;;;;;2090631;28;20487;-49
2024/02/29 01:58:50;;;;;;;2.40;1.20;;;;;;;;;;2095541;28;20036;-48
2024/02/29 01:59:51;;;;;;;2.05;1.30;;;;;;;;;;2084082;28;20056;-48
2024/02/29 02:00:52;;;;;;;5.00;1.65;;;;;;;;;;2085782;28;20021;-48
2024/02/29 02:01:54;;;;;;;4.03;1.40;;;;;;;;;;2085551;28;20017;-48
2024/02/29 02:02:57;;;;;;;3.38;1.23;;;;;;;;;;2082108;28;20033;-48
2024/02/29 02:03:58;;;;;;;2.22;1.17;;;;;;;;;;2086037;28;20059;-49
2024/02/29 02:05:00;;;;;;;4.32;1.60;;;;;;;;;;2078365;28;20484;-49
2024/02/29 02:06:01;;;;;;;4.03;1.75;;;;;;;;;;2081571;28;20022;-50
2024/02/29 02:07:04;;;;;;;4.32;1.52;;;;;;;;;;2087132;28;20044;-48
2024/02/29 02:08:06;;;;;;;2.58;1.40;;;;;;;;;;2087314;28;20102;-47
2024/02/29 02:09:07;;;;;;;2.70;1.40;;;;;;;;;;2084888;28;20030;-49
2024/02/29 02:10:10;;;;;;;3.38;1.55;;;;;;;;;;2083394;28;20014;-48
2024/02/29 02:11:12;;;;;;;2.80;1.40;;;;;;;;;;2088030;28;20375;-49
2024/02/29 02:12:14;;;;;;;2.28;1.23;;;;;;;;;;2083255;28;20404;-49
2024/02/29 02:13:15;;;;;;;3.33;1.30;;;;;;;;;;2084746;28;20033;-49
2024/02/29 02:14:17;;;;;;;2.92;1.45;;;;;;;;;;2085437;28;20380;-48
2024/02/29 02:15:18;;;;;;;3.42;1.30;;;;;;;;;;2083504;28;20079;-49
2024/02/29 02:16:19;;;;;;;3.55;1.23;;;;;;;;;;2084205;28;20080;-48
2024/02/29 02:17:21;;;;;;;2.78;1.70;;;;;;;;;;2084601;28;20438;-49
2024/02/29 02:18:22;;;;;;;2.40;1.30;;;;;;;;;;2082601;28;20545;-50
2024/02/29 02:19:24;;;;;;;5.45;1.52;;;;;;;;;;2084975;28;20018;-49
2024/02/29 02:20:25;;;;;;;2.03;1.20;;;;;;;;;;2085239;28;20018;-48
2024/02/29 02:21:26;;;;;;;3.63;1.27;;;;;;;;;;2081943;28;20064;-48
2024/02/29 02:22:28;;;;;;;2.13;1.30;;;;;;;;;;2084282;28;20071;-48
2024/02/29 02:23:29;;;;;;;4.25;1.52;;;;;;;;;;2087094;28;20533;-48
2024/02/29 02:24:34;;;;;;;2.65;1.30;;;;;;;;;;2087409;28;20009;-48
2024/02/29 02:25:35;;;;;;;4.32;1.60;;;;;;;;;;2084382;28;20093;-48
2024/02/29 02:26:36;;;;;;;3.50;1.20;;;;;;;;;;2083143;28;20448;-48
2024/02/29 02:27:38;;;;;;;2.72;1.20;;;;;;;;;;2082936;28;20017;-48
2024/02/29 02:28:39;;;;;;;3.28;1.17;;;;;;;;;;2084659;28;20509;-48
2024/02/29 02:29:41;;;;;;;2.13;1.17;;;;;;;;;;2082314;28;20107;-49
2024/02/29 02:30:42;;;;;;;3.22;1.38;;;;;;;;;;2085954;28;20017;-49
2024/02/29 02:31:43;;;;;;;3.50;1.60;;;;;;;;;;2077811;28;20141;-49
2024/02/29 02:32:44;;;;;;;3.80;1.42;;;;;;;;;;2079780;28;20108;-49
2024/02/29 02:33:46;;;;;;;2.33;1.40;;;;;;;;;;2087237;28;20052;-49
2024/02/29 02:34:47;;;;;;;4.32;1.80;;;;;;;;;;2083980;28;20049;-49
2024/02/29 02:35:48;;;;;;;2.22;1.40;;;;;;;;;;2072450;28;20113;-49
2024/02/29 02:36:49;;;;;;;5.30;1.73;;;;;;;;;;2084347;28;20044;-49
2024/02/29 02:37:51;;;;;;;4.18;1.65;;;;;;;;;;2081333;28;20021;-50
2024/02/29 02:38:52;;;;;;;5.13;1.23;;;;;;;;;;2085988;28;20017;-49
2024/02/29 02:39:53;;;;;;;1.98;1.40;;;;;;;;;;2087056;28;20434;-49
2024/02/29 02:40:54;;;;;;;3.97;1.48;;;;;;;;;;2087582;28;20640;-48
2024/02/29 02:41:56;;;;;;;2.70;1.50;;;;;;;;;;2082793;28;20084;-53
2024/02/29 02:42:57;;;;;;;2.65;1.65;;;;;;;;;;2085212;28;20111;-49
2024/02/29 02:43:58;;;;;;;3.83;1.65;;;;;;;;;;2083615;28;20044;-48
2024/02/29 02:44:59;;;;;;;3.35;1.67;;;;;;;;;;2081733;28;20496;-49
2024/02/29 02:46:01;;;;;;;3.88;1.45;;;;;;;;;;2085012;28;20029;-51
2024/02/29 02:47:02;;;;;;;4.97;1.58;;;;;;;;;;2085850;28;20108;-49
2024/02/29 02:48:03;;;;;;;2.83;1.80;;;;;;;;;;2085145;28;20087;-48
2024/02/29 02:49:04;;;;;;;4.40;1.30;;;;;;;;;;2084818;28;20039;-47
2024/02/29 02:50:06;;;;;;;3.67;2.03;;;;;;;;;;2084858;28;20674;-48
2024/02/29 02:51:07;;;;;;;3.92;1.42;;;;;;;;;;2086381;28;20036;-50
2024/02/29 02:52:09;;;;;;;3.03;1.45;;;;;;;;;;2088253;28;20456;-51
2024/02/29 02:53:10;;;;;;;4.28;1.77;;;;;;;;;;2083293;28;20030;-50
2024/02/29 02:54:11;;;;;;;4.88;1.45;;;;;;;;;;2087046;28;20166;-49
2024/02/29 02:55:13;;;;;;;2.28;1.42;;;;;;;;;;2081151;28;20108;-49
2024/02/29 02:56:14;;;;;;;2.80;1.33;;;;;;;;;;2087387;28;20610;-49
2024/02/29 02:57:15;;;;;;;3.60;1.70;;;;;;;;;;2085600;28;20099;-56
2024/02/29 02:58:17;;;;;;;1.90;1.60;;;;;;;;;;2082537;28;20525;-49
2024/02/29 02:59:18;;;;;;;3.13;1.65;;;;;;;;;;2083279;28;20060;-49
2024/02/29 03:00:19;;;;;;;3.90;1.50;;;;;;;;;;2085357;28;20459;-49
2024/02/29 03:01:21;;;;;;;3.13;1.27;;;;;;;;;;2086935;28;20085;-48
2024/02/29 03:02:22;;;;;;;3.53;1.50;;;;;;;;;;2082420;28;20017;-48
2024/02/29 03:03:24;;;;;;;4.00;1.95;;;;;;;;;;2083103;28;20030;-48
2024/02/29 03:04:25;;;;;;;2.72;1.48;;;;;;;;;;2087448;28;20056;-48
2024/02/29 03:05:26;;;;;;;3.75;1.63;;;;;;;;;;2083721;28;20029;-48
2024/02/29 03:06:28;;;;;;;2.63;1.58;;;;;;;;;;2082810;28;20523;-48
2024/02/29 03:07:29;;;;;;;4.22;1.63;;;;;;;;;;2081874;28;20021;-48
2024/02/29 03:08:31;;;;;;;2.80;1.42;;;;;;;;;;2083304;28;20030;-48
2024/02/29 03:09:32;;;;;;;3.03;1.60;;;;;;;;;;2083029;28;20492;-51
2024/02/29 03:10:34;;;;;;;5.00;1.80;;;;;;;;;;2080950;28;20014;-49
2024/02/29 03:11:35;;;;;;;2.47;1.50;;;;;;;;;;2082712;28;20025;-49
2024/02/29 03:12:37;;;;;;;2.67;1.30;;;;;;;;;;2086377;28;20024;-47
2024/02/29 03:13:39;;;;;;;3.88;1.75;;;;;;;;;;2082925;28;20014;-48
2024/02/29 03:14:40;;;;;;;4.57;2.13;;;;;;;;;;2082283;28;20032;-49
2024/02/29 03:15:41;;;;;;;2.90;1.73;;;;;;;;;;2083043;28;20404;-49
2024/02/29 03:16:43;;;;;;;5.90;2.10;;;;;;;;;;2081222;28;20028;-48
2024/02/29 03:17:44;;;;;;;7.32;1.55;;;;;;;;;;2083698;28;20025;-49
2024/02/29 03:18:45;;;;;;;4.25;1.67;;;;;;;;;;2083611;28;20506;-57
2024/02/29 03:19:47;;;;;;;2.40;1.60;;;;;;;;;;2086233;28;20126;-49
2024/02/29 03:20:48;;;;;;;3.00;1.77;;;;;;;;;;2086868;28;20078;-50
2024/02/29 03:21:49;;;;;;;4.30;1.40;;;;;;;;;;2084783;28;20063;-48
2024/02/29 03:22:50;;;;;;;3.95;1.58;;;;;;;;;;2081892;28;20115;-49
2024/02/29 03:23:52;;;;;;;4.85;1.65;;;;;;;;;;2083861;28;20056;-50
2024/02/29 03:24:54;;;;;;;2.85;1.90;;;;;;;;;;2082417;28;20404;-49
2024/02/29 03:25:55;;;;;;;3.92;2.13;;;;;;;;;;2084339;28;20051;-48
2024/02/29 03:26:56;;;;;;;5.13;1.83;;;;;;;;;;2084703;28;20021;-48
2024/02/29 03:27:57;;;;;;;4.03;1.95;;;;;;;;;;2084116;28;20088;-48
2024/02/29 03:28:59;;;;;;;4.03;2.30;;;;;;;;;;2083419;28;20041;-48
2024/02/29 03:30:01;;;;;;;3.45;1.88;;;;;;;;;;2085595;28;20013;-48
2024/02/29 03:31:03;;;;;;;8.48;2.33;;;;;;;;;;2085413;28;20115;-48
2024/02/29 03:32:04;;;;;;;5.20;2.05;;;;;;;;;;2085923;28;20112;-48
2024/02/29 03:33:05;;;;;;;6.00;1.92;;;;;;;;;;2084878;28;20063;-49
2024/02/29 03:34:07;;;;;;;4.97;2.25;;;;;;;;;;2085018;28;20108;-52
2024/02/29 03:35:08;;;;;;;2.75;1.73;;;;;;;;;;2086784;28;20056;-54
2024/02/29 03:36:09;;;;;;;5.03;1.70;;;;;;;;;;2083422;28;20025;-53
2024/02/29 03:37:13;;;;;;;5.68;2.30;;;;;;;;;;2087433;28;20031;-53
2024/02/29 03:38:14;;;;;;;4.45;2.22;;;;;;;;;;2087579;28;20405;-51
2024/02/29 03:39:16;;;;;;;3.63;1.95;;;;;;;;;;2086307;28;20029;-52
2024/02/29 03:40:17;;;;;;;4.60;1.88;;;;;;;;;;2085099;28;20067;-53
2024/02/29 03:41:18;;;;;;;3.70;2.05;;;;;;;;;;2085059;28;20353;-53
2024/02/29 03:42:19;;;;;;;6.25;2.08;;;;;;;;;;2083664;28;20021;-50
2024/02/29 03:43:20;;;;;;;4.97;1.65;;;;;;;;;;2081088;28;20056;-55
2024/02/29 03:44:22;;;;;;;2.90;1.58;;;;;;;;;;2085608;28;20025;-51
2024/02/29 03:45:23;;;;;;;4.55;1.92;;;;;;;;;;2082951;28;20017;-53
2024/02/29 03:46:24;;;;;;;3.88;1.85;;;;;;;;;;2089088;28;20032;-53
2024/02/29 03:47:25;;;;;;;4.28;1.92;;;;;;;;;;2084980;28;20492;-53
2024/02/29 03:48:27;;;;;;;5.68;1.42;;;;;;;;;;2082480;28;20033;-51
2024/02/29 03:49:28;;;;;;;3.53;1.75;;;;;;;;;;2084688;28;20392;-51
2024/02/29 03:50:30;;;;;;;4.75;2.05;;;;;;;;;;2084403;28;20029;-53
2024/02/29 03:51:31;;;;;;;3.22;1.75;;;;;;;;;;2087746;28;20068;-54
2024/02/29 03:52:32;;;;;;;3.40;1.75;;;;;;;;;;2084717;28;20084;-51
2024/02/29 03:53:34;;;;;;;2.47;1.33;;;;;;;;;;2082910;28;20063;-52
2024/02/29 03:54:35;;;;;;;2.10;1.35;;;;;;;;;;2085807;28;20032;-55
2024/02/29 03:55:36;;;;;;;5.55;1.70;;;;;;;;;;2083401;28;20110;-51
2024/02/29 03:56:38;;;;;;;3.47;1.45;;;;;;;;;;2086324;28;20017;-53
2024/02/29 03:57:39;;;;;;;5.22;1.50;;;;;;;;;;2085242;28;20108;-54
2024/02/29 03:58:40;;;;;;;2.65;1.30;;;;;;;;;;2084689;28;20477;-53
2024/02/29 03:59:47;;;;;;;2.60;1.73;;;;;;;;;;2085139;28;20460;-53
2024/02/29 04:00:48;;;;;;;3.03;1.30;;;;;;;;;;2081993;28;20025;-52
2024/02/29 04:01:49;;;;;;;3.72;1.55;;;;;;;;;;2081171;28;20026;-52
2024/02/29 04:02:51;;;;;;;4.13;1.85;;;;;;;;;;2081865;28;20189;-51
2024/02/29 04:03:52;;;;;;;3.65;1.65;;;;;;;;;;2082421;28;20029;-52
2024/02/29 04:04:54;;;;;;;3.63;1.58;;;;;;;;;;2088055;28;20017;-52
2024/02/29 04:05:57;;;;;;;2.58;1.45;;;;;;;;;;2083913;28;20032;-53
2024/02/29 04:06:58;;;;;;;3.63;1.50;;;;;;;;;;2086624;28;20037;-53
2024/02/29 04:08:10;;;;;;;2.50;1.33;;;;;;;;;;2083927;28;20460;-53
2024/02/29 04:09:12;;;;;;;3.33;1.58;;;;;;;;;;2081556;28;20469;-53
2024/02/29 04:10:14;;;;;;;2.90;1.52;;;;;;;;;;2081197;28;20093;-51
2024/02/29 04:11:16;;;;;;;2.97;1.50;;;;;;;;;;2082003;28;20049;-51
2024/02/29 04:12:17;;;;;;;3.78;1.70;;;;;;;;;;2082947;28;20017;-51
2024/02/29 04:13:18;;;;;;;2.88;1.50;;;;;;;;;;2087066;28;20021;-53
2024/02/29 04:14:20;;;;;;;4.70;1.50;;;;;;;;;;2084577;28;20033;-52
2024/02/29 04:15:21;;;;;;;3.30;1.65;;;;;;;;;;2087019;28;20372;-52
2024/02/29 04:16:22;;;;;;;2.80;1.70;;;;;;;;;;2071778;28;20038;-50
2024/02/29 04:17:24;;;;;;;2.92;1.42;;;;;;;;;;2074041;28;20511;-52
2024/02/29 04:18:25;;;;;;;2.72;1.52;;;;;;;;;;2083149;28;20507;-52
2024/02/29 04:19:26;;;;;;;3.60;1.60;;;;;;;;;;2080945;28;20110;-51
2024/02/29 04:20:28;;;;;;;7.45;1.65;;;;;;;;;;2083556;28;20097;-52
2024/02/29 04:21:29;;;;;;;3.58;1.63;;;;;;;;;;2081673;28;20018;-53
2024/02/29 04:22:30;;;;;;;2.10;1.38;;;;;;;;;;2091777;28;20579;-51
2024/02/29 04:23:32;;;;;;;4.90;1.65;;;;;;;;;;2089158;28;20539;-53
2024/02/29 04:24:33;;;;;;;3.03;1.60;;;;;;;;;;2082087;28;20033;-51
2024/02/29 04:25:35;;;;;;;5.53;1.85;;;;;;;;;;2085532;28;20021;-51
2024/02/29 04:26:36;;;;;;;4.38;1.50;;;;;;;;;;2082215;28;20037;-52
2024/02/29 04:27:38;;;;;;;2.63;1.40;;;;;;;;;;2082962;28;20109;-53
2024/02/29 04:28:39;;;;;;;2.92;1.50;;;;;;;;;;2082571;28;20040;-54
2024/02/29 04:29:40;;;;;;;3.35;1.70;;;;;;;;;;2081721;28;20013;-53
2024/02/29 04:30:42;;;;;;;5.53;1.67;;;;;;;;;;2083911;28;20025;-54
2024/02/29 04:31:48;;;;;;;3.05;1.58;;;;;;;;;;2082381;28;20454;-51
2024/02/29 04:32:49;;;;;;;2.97;1.60;;;;;;;;;;2085626;28;20093;-53
2024/02/29 04:33:50;;;;;;;3.20;1.70;;;;;;;;;;2083571;28;20033;-52
2024/02/29 04:34:52;;;;;;;4.90;1.75;;;;;;;;;;2084133;28;20059;-53
2024/02/29 04:35:53;;;;;;;2.47;1.65;;;;;;;;;;2082579;28;20045;-51
2024/02/29 04:36:55;;;;;;;3.13;1.70;;;;;;;;;;2080844;28;20053;-54
2024/02/29 04:37:56;;;;;;;2.45;1.50;;;;;;;;;;2081454;28;20092;-51
2024/02/29 04:38:57;;;;;;;3.72;1.80;;;;;;;;;;2084541;28;20056;-53
2024/02/29 04:39:58;;;;;;;4.10;1.83;;;;;;;;;;2086816;28;20056;-54
2024/02/29 04:41:00;;;;;;;4.40;1.88;;;;;;;;;;2089302;28;20009;-54
2024/02/29 04:42:01;;;;;;;3.05;2.00;;;;;;;;;;2092281;28;20352;-53
2024/02/29 04:43:02;;;;;;;6.70;1.45;;;;;;;;;;2084731;28;20124;-54
2024/02/29 04:44:03;;;;;;;3.85;1.85;;;;;;;;;;2084732;28;20009;-47
2024/02/29 04:45:05;;;;;;;3.92;1.83;;;;;;;;;;2087240;28;20082;-52
2024/02/29 04:46:07;;;;;;;4.53;1.90;;;;;;;;;;2089631;28;20060;-52
2024/02/29 04:47:08;;;;;;;5.63;2.00;;;;;;;;;;2087460;28;20025;-52
2024/02/29 04:48:09;;;;;;;4.63;2.05;;;;;;;;;;2084804;28;20448;-52
2024/02/29 04:49:10;;;;;;;4.13;1.75;;;;;;;;;;2088532;28;20082;-52
2024/02/29 04:50:12;;;;;;;3.95;1.85;;;;;;;;;;2084010;28;20022;-53
2024/02/29 04:51:13;;;;;;;6.40;2.22;;;;;;;;;;2085472;28;21165;-52
2024/02/29 04:52:14;;;;;;;4.45;1.85;;;;;;;;;;2082059;28;20041;-48
2024/02/29 04:53:16;;;;;;;5.20;1.83;;;;;;;;;;2083408;28;20033;-54
2024/02/29 04:54:17;;;;;;;5.00;1.95;;;;;;;;;;2086867;28;20016;-52
2024/02/29 04:55:19;;;;;;;7.05;2.25;;;;;;;;;;2087876;28;20017;-52
2024/02/29 04:56:20;;;;;;;5.55;2.00;;;;;;;;;;2085879;28;20480;-53
2024/02/29 04:57:21;;;;;;;3.95;1.40;;;;;;;;;;2084719;28;20018;-53
2024/02/29 04:58:22;;;;;;;3.28;1.58;;;;;;;;;;2085201;28;20050;-52
2024/02/29 04:59:24;;;;;;;9.35;2.00;;;;;;;;;;2084168;28;20032;-52
2024/02/29 05:00:25;;;;;;;5.65;2.15;;;;;;;;;;2084906;28;20017;-50
2024/02/29 05:01:26;;;;;;;5.68;1.27;;;;;;;;;;2088000;28;20025;-51
2024/02/29 05:02:27;;;;;;;2.10;1.25;;;;;;;;;;2087784;28;20010;-51
2024/02/29 05:03:29;;;;;;;2.40;1.40;;;;;;;;;;2083433;28;20024;-54
2024/02/29 05:04:31;;;;;;;3.40;1.92;;;;;;;;;;2085466;28;20076;-54
2024/02/29 05:05:32;;;;;;;2.53;1.67;;;;;;;;;;2082764;28;20040;-53
2024/02/29 05:06:34;;;;;;;3.63;1.65;;;;;;;;;;2088115;28;20912;-50
2024/02/29 05:07:35;;;;;;;3.30;1.75;;;;;;;;;;2082338;28;20036;-47
2024/02/29 05:08:36;;;;;;;2.78;1.50;;;;;;;;;;2083819;28;20567;-51
2024/02/29 05:09:38;;;;;;;2.53;1.40;;;;;;;;;;2085330;28;20028;-52
2024/02/29 05:10:39;;;;;;;5.13;1.65;;;;;;;;;;2083834;28;20031;-53
2024/02/29 05:11:41;;;;;;;6.85;1.60;;;;;;;;;;2085791;28;20488;-51
2024/02/29 05:12:42;;;;;;;5.45;1.60;;;;;;;;;;2090110;28;20032;-52
2024/02/29 05:13:43;;;;;;;2.95;1.63;;;;;;;;;;2085556;28;20025;-47
2024/02/29 05:14:45;;;;;;;3.65;1.80;;;;;;;;;;2085819;28;20030;-49
2024/02/29 05:15:46;;;;;;;4.57;1.70;;;;;;;;;;2085949;28;20044;-48
2024/02/29 05:16:47;;;;;;;4.05;1.80;;;;;;;;;;2081480;28;20029;-49
2024/02/29 05:17:49;;;;;;;6.35;3.40;;;;;;;;;;2083545;28;20028;-47
2024/02/29 05:18:51;;;;;;;3.72;1.70;;;;;;;;;;2086699;28;20486;-49
2024/02/29 05:19:54;;;;;;;3.40;1.73;;;;;;;;;;2084253;28;20548;-49
2024/02/29 05:20:55;;;;;;;11.23;1.70;;;;;;;;;;2083476;28;20021;-49
2024/02/29 05:21:56;;;;;;;3.92;1.70;;;;;;;;;;2082902;28;20028;-48
2024/02/29 05:22:58;;;;;;;3.22;1.63;;;;;;;;;;2085818;28;20021;-48
2024/02/29 05:23:59;;;;;;;2.90;1.20;;;;;;;;;;2087877;28;20021;-48
2024/02/29 05:25:00;;;;;;;3.05;1.65;;;;;;;;;;2089544;28;20056;-48
2024/02/29 05:26:03;;;;;;;4.97;1.60;;;;;;;;;;2083498;28;20543;-50
2024/02/29 05:27:04;;;;;;;3.38;1.30;;;;;;;;;;2088165;28;20013;-50
2024/02/29 05:28:05;;;;;;;2.65;1.52;;;;;;;;;;2085794;28;20486;-50
2024/02/29 05:29:07;;;;;;;2.35;1.45;;;;;;;;;;2087897;28;20032;-49
2024/02/29 05:30:08;;;;;;;5.22;1.55;;;;;;;;;;2089085;28;20402;-49
2024/02/29 05:31:10;;;;;;;5.60;1.55;;;;;;;;;;2083845;28;20109;-49
2024/02/29 05:32:11;;;;;;;1.67;1.27;;;;;;;;;;2085934;28;20037;-49
2024/02/29 05:33:12;;;;;;;2.38;1.50;;;;;;;;;;2086251;28;20055;-47
2024/02/29 05:34:14;;;;;;;2.78;1.38;;;;;;;;;;2086562;28;20025;-49
2024/02/29 05:35:15;;;;;;;2.08;1.05;;;;;;;;;;2088070;28;20025;-49
2024/02/29 05:36:16;;;;;;;1.63;1.02;;;;;;;;;;2087868;28;20498;-49
2024/02/29 05:37:18;;;;;;;2.53;1.33;;;;;;;;;;2082673;28;20025;-48
2024/02/29 05:38:19;;;;;;;3.88;1.00;;;;;;;;;;2086362;28;20028;-52
2024/02/29 05:39:20;;;;;;;2.40;1.35;;;;;;;;;;2088272;28;20100;-52
2024/02/29 05:40:22;;;;;;;7.07;2.28;;;;;;;;;;2083627;28;20529;-52
2024/02/29 05:41:23;;;;;;;2.17;1.20;;;;;;;;;;2082831;28;20021;-52
2024/02/29 05:42:26;;;;;;;2.65;1.15;;;;;;;;;;2084852;28;20104;-51
2024/02/29 05:43:27;;;;;;;3.45;1.30;;;;;;;;;;2083728;28;20476;-52
2024/02/29 05:44:30;;;;;;;2.08;1.40;;;;;;;;;;2084896;28;20029;-51
2024/02/29 05:45:32;;;;;;;2.50;1.35;;;;;;;;;;2089078;28;20037;-49
2024/02/29 05:46:33;;;;;;;2.50;1.30;;;;;;;;;;2082875;28;20380;-49
2024/02/29 05:47:35;;;;;;;2.45;1.20;;;;;;;;;;2087085;28;20036;-49
2024/02/29 05:48:37;;;;;;;1.63;0.98;;;;;;;;;;2085380;28;20019;-49
2024/02/29 05:49:38;;;;;;;3.08;1.20;;;;;;;;;;2087051;28;20748;-49
2024/02/29 05:50:40;;;;;;;2.13;1.08;;;;;;;;;;2083697;28;20108;-49
2024/02/29 05:51:41;;;;;;;2.92;1.27;;;;;;;;;;2087532;28;20021;-49
2024/02/29 05:52:43;;;;;;;2.78;1.50;;;;;;;;;;2085722;28;20107;-52
2024/02/29 05:53:44;;;;;;;5.82;1.35;;;;;;;;;;2081867;28;20521;-49
2024/02/29 05:54:45;;;;;;;2.33;1.10;;;;;;;;;;2088179;28;20483;-49
2024/02/29 05:55:46;;;;;;;2.33;1.08;;;;;;;;;;2085419;28;20073;-47
2024/02/29 05:56:48;;;;;;;3.33;1.30;;;;;;;;;;2088205;28;20375;-49
2024/02/29 05:57:52;;;;;;;2.47;1.30;;;;;;;;;;2088302;28;20176;-48
2024/02/29 05:58:53;;;;;;;2.58;1.17;;;;;;;;;;2085824;28;20056;-51
2024/02/29 05:59:54;;;;;;;4.82;1.45;;;;;;;;;;2085337;28;20024;-53
2024/02/29 06:00:55;;;;;;;5.47;1.10;;;;;;;;;;2081358;28;20200;-55
2024/02/29 06:01:57;;;;;;;5.25;1.67;;;;;;;;;;2081969;28;20032;-54
2024/02/29 06:02:58;;;;;;;2.65;0.90;;;;;;;;;;2087422;28;20017;-51
2024/02/29 06:03:59;;;;;;;4.78;1.48;;;;;;;;;;2087404;28;20029;-48
2024/02/29 06:05:00;;;;;;;2.63;1.23;;;;;;;;;;2084150;28;20037;-51
2024/02/29 06:06:02;;;;;;;4.90;1.50;;;;;;;;;;2083184;28;20380;-51
2024/02/29 06:07:04;;;;;;;2.67;1.70;;;;;;;;;;2084477;28;20057;-48
2024/02/29 06:08:07;;;;;;;3.63;1.70;;;;;;;;;;2089732;28;20494;-52